createdAt,value
2023-02-11T00:01:50.955Z,92.10
2023-02-11T00:04:17.798Z,92.10
2023-02-11T00:06:44.585Z,92.10
2023-02-11T00:09:11.423Z,92.10
2023-02-11T00:11:38.592Z,92.10
2023-02-11T00:14:07.685Z,92.10
2023-02-11T00:16:34.588Z,92.10
2023-02-11T00:19:02.408Z,92.00
2023-02-11T00:21:29.448Z,92.40
2023-02-11T00:23:57.382Z,92.00
2023-02-11T00:26:25.678Z,92.00
2023-02-11T00:28:53.340Z,92.00
2023-02-11T00:31:21.728Z,92.10
2023-02-11T00:33:48.605Z,92.00
2023-02-11T00:36:26.156Z,92.00
2023-02-11T00:38:53.694Z,92.10
2023-02-11T00:41:20.936Z,92.10
2023-02-11T00:43:47.861Z,92.10
2023-02-11T00:46:15.294Z,92.00
2023-02-11T00:48:42.173Z,92.00
2023-02-11T00:51:09.433Z,92.00
2023-02-11T00:53:36.341Z,92.00
2023-02-11T00:56:03.356Z,92.00
2023-02-11T00:58:30.430Z,92.00
2023-02-11T01:00:57.677Z,92.00
2023-02-11T01:03:24.752Z,92.00
2023-02-11T01:05:51.688Z,92.00
2023-02-11T01:08:18.811Z,92.00
2023-02-11T01:10:45.556Z,92.00
2023-02-11T01:13:12.836Z,92.00
2023-02-11T01:15:39.594Z,92.00
2023-02-11T01:18:06.398Z,92.10
2023-02-11T01:20:33.257Z,92.00
2023-02-11T01:23:00.022Z,92.10
2023-02-11T01:25:27.028Z,92.00
2023-02-11T01:27:53.746Z,92.10
2023-02-11T01:30:20.819Z,92.10
2023-02-11T01:32:47.616Z,92.10
2023-02-11T01:35:14.631Z,92.10
2023-02-11T01:37:41.969Z,92.10
2023-02-11T01:40:12.789Z,92.10
2023-02-11T01:42:39.548Z,92.10
2023-02-11T01:45:25.084Z,92.10
2023-02-11T01:47:51.893Z,92.10
2023-02-11T01:50:18.674Z,92.00
2023-02-11T01:52:47.832Z,92.00
2023-02-11T01:55:34.537Z,92.10
2023-02-11T01:58:04.589Z,92.10
2023-02-11T02:00:35.600Z,92.10
2023-02-11T02:03:05.335Z,92.00
2023-02-11T02:05:39.028Z,92.10
2023-02-11T02:08:11.755Z,92.10
2023-02-11T02:10:41.220Z,92.10
2023-02-11T02:13:08.111Z,92.10
2023-02-11T02:15:36.394Z,92.10
2023-02-11T02:18:06.168Z,92.00
2023-02-11T02:20:51.039Z,92.00
2023-02-11T02:23:24.963Z,92.00
2023-02-11T02:26:10.722Z,92.00
2023-02-11T02:28:37.601Z,92.00
2023-02-11T02:31:04.399Z,92.00
2023-02-11T02:33:45.293Z,92.00
2023-02-11T02:36:34.236Z,92.00
2023-02-11T02:39:04.159Z,92.00
2023-02-11T02:41:32.388Z,92.00
2023-02-11T02:43:59.411Z,92.00
2023-02-11T02:46:28.163Z,92.00
2023-02-11T02:48:55.336Z,92.00
2023-02-11T02:51:41.027Z,92.00
2023-02-11T02:54:13.935Z,92.00
2023-02-11T02:56:55.727Z,92.00
2023-02-11T02:59:27.329Z,92.00
2023-02-11T03:02:12.974Z,91.90
2023-02-11T03:04:58.037Z,91.90
2023-02-11T03:07:24.733Z,91.90
2023-02-11T03:09:54.812Z,91.90
2023-02-11T03:12:22.165Z,91.90
2023-02-11T03:14:51.184Z,91.90
2023-02-11T03:17:18.321Z,91.90
2023-02-11T03:19:46.565Z,91.90
2023-02-11T03:22:17.269Z,91.90
2023-02-11T03:24:44.677Z,91.90
2023-02-11T03:27:24.868Z,91.90
2023-02-11T03:29:51.885Z,91.90
2023-02-11T03:32:30.190Z,91.90
2023-02-11T03:34:56.870Z,91.90
2023-02-11T03:37:52.972Z,91.90
2023-02-11T03:40:21.119Z,91.90
2023-02-11T03:42:54.089Z,92.30
2023-02-11T03:45:22.618Z,91.90
2023-02-11T03:47:51.893Z,91.90
2023-02-11T03:50:19.328Z,91.90
2023-02-11T03:52:47.272Z,91.90
2023-02-11T03:55:16.901Z,91.90
2023-02-11T03:57:43.708Z,91.90
2023-02-11T04:00:11.143Z,91.90
2023-02-11T04:02:41.532Z,91.90
2023-02-11T04:05:14.118Z,91.90
2023-02-11T04:07:41.173Z,91.90
2023-02-11T04:10:08.214Z,91.90
2023-02-11T04:12:35.164Z,91.80
2023-02-11T04:15:02.018Z,91.80
2023-02-11T04:17:28.890Z,91.80
2023-02-11T04:19:55.957Z,91.90
2023-02-11T04:22:22.638Z,91.90
2023-02-11T04:24:49.478Z,91.90
2023-02-11T04:27:16.393Z,91.80
2023-02-11T04:29:43.156Z,91.90
2023-02-11T04:32:11.572Z,91.80
2023-02-11T04:34:38.505Z,91.90
2023-02-11T04:37:05.533Z,91.80
2023-02-11T04:39:32.448Z,91.80
2023-02-11T04:41:59.394Z,91.90
2023-02-11T04:44:26.161Z,91.80
2023-02-11T04:46:54.482Z,91.80
2023-02-11T04:49:21.434Z,91.80
2023-02-11T04:51:49.509Z,91.80
2023-02-11T04:54:16.736Z,91.80
2023-02-11T04:56:44.232Z,91.80
2023-02-11T04:59:13.074Z,91.80
2023-02-11T05:01:40.069Z,91.80
2023-02-11T05:04:06.881Z,91.80
2023-02-11T05:06:33.971Z,91.80
2023-02-11T05:09:00.804Z,91.80
2023-02-11T05:11:27.596Z,91.80
2023-02-11T05:13:54.460Z,91.80
2023-02-11T05:16:21.753Z,91.80
2023-02-11T05:18:52.447Z,91.80
2023-02-11T05:21:20.090Z,91.80
2023-02-11T05:23:47.260Z,91.80
2023-02-11T05:26:14.486Z,91.80
2023-02-11T05:28:41.255Z,91.80
2023-02-11T05:31:08.125Z,91.80
2023-02-11T05:33:35.353Z,91.80
2023-02-11T05:36:03.629Z,91.80
2023-02-11T05:38:30.398Z,91.80
2023-02-11T05:40:57.316Z,91.80
2023-02-11T05:43:24.498Z,91.80
2023-02-11T05:45:52.297Z,91.90
2023-02-11T05:48:19.927Z,91.80
2023-02-11T05:50:46.606Z,91.80
2023-02-11T05:53:15.176Z,91.80
2023-02-11T05:55:42.033Z,91.80
2023-02-11T05:58:08.850Z,92.20
2023-02-11T06:00:35.657Z,91.80
2023-02-11T06:03:04.201Z,91.80
2023-02-11T06:05:31.448Z,91.80
2023-02-11T06:07:58.339Z,91.80
2023-02-11T06:10:25.039Z,91.80
2023-02-11T06:12:51.930Z,91.80
2023-02-11T06:15:18.821Z,91.80
2023-02-11T06:17:45.685Z,91.80
2023-02-11T06:20:12.434Z,91.80
2023-02-11T06:22:39.567Z,91.80
2023-02-11T06:25:06.503Z,91.80
2023-02-11T06:27:33.203Z,91.80
2023-02-11T06:30:00.416Z,91.80
2023-02-11T06:32:45.477Z,91.80
2023-02-11T06:35:13.429Z,91.80
2023-02-11T06:37:44.192Z,91.80
2023-02-11T06:40:15.938Z,91.80
2023-02-11T06:42:42.818Z,91.80
2023-02-11T06:45:11.178Z,91.70
2023-02-11T06:47:39.807Z,91.70
2023-02-11T06:50:08.910Z,91.70
2023-02-11T06:52:35.813Z,91.70
2023-02-11T06:55:02.575Z,91.70
2023-02-11T06:57:30.184Z,91.80
2023-02-11T06:59:56.906Z,91.70
2023-02-11T07:02:24.271Z,91.70
2023-02-11T07:04:50.956Z,91.70
2023-02-11T07:07:17.656Z,91.70
2023-02-11T07:09:44.554Z,91.70
2023-02-11T07:12:11.436Z,91.70
2023-02-11T07:14:38.245Z,91.70
2023-02-11T07:17:05.187Z,91.70
2023-02-11T07:19:32.089Z,91.80
2023-02-11T07:21:58.816Z,91.80
2023-02-11T07:24:25.467Z,91.80
2023-02-11T07:26:53.054Z,91.80
2023-02-11T07:29:19.725Z,91.80
2023-02-11T07:31:46.788Z,91.80
2023-02-11T07:34:13.743Z,91.80
2023-02-11T07:36:43.512Z,91.80
2023-02-11T07:39:11.008Z,91.80
2023-02-11T07:41:38.508Z,91.70
2023-02-11T07:44:05.873Z,91.80
2023-02-11T07:46:34.437Z,91.70
2023-02-11T07:49:01.461Z,91.80
2023-02-11T07:51:29.029Z,91.70
2023-02-11T07:53:58.017Z,91.80
2023-02-11T07:56:24.993Z,91.80
2023-02-11T07:58:51.891Z,91.80
2023-02-11T08:01:22.103Z,91.80
2023-02-11T08:03:48.994Z,91.80
2023-02-11T08:06:16.627Z,91.80
2023-02-11T08:08:44.072Z,91.80
2023-02-11T08:11:18.114Z,91.80
2023-02-11T08:13:45.192Z,91.80
2023-02-11T08:16:39.033Z,91.80
2023-02-11T08:19:07.406Z,91.80
2023-02-11T08:21:34.186Z,91.80
2023-02-11T08:24:02.018Z,91.80
2023-02-11T08:26:29.877Z,91.80
2023-02-11T08:28:56.988Z,91.80
2023-02-11T08:31:28.918Z,91.80
2023-02-11T08:33:58.011Z,91.80
2023-02-11T08:36:26.602Z,91.80
2023-02-11T08:38:57.115Z,91.80
2023-02-11T08:41:30.351Z,91.80
2023-02-11T08:43:57.069Z,91.80
2023-02-11T08:46:24.019Z,91.90
2023-02-11T08:48:50.786Z,91.90
2023-02-11T08:51:19.369Z,91.80
2023-02-11T08:53:46.493Z,91.80
2023-02-11T08:56:14.010Z,91.90
2023-02-11T08:58:41.369Z,91.90
2023-02-11T09:01:12.381Z,91.90
2023-02-11T09:03:39.144Z,91.90
2023-02-11T09:06:07.154Z,91.90
2023-02-11T09:08:38.064Z,91.90
2023-02-11T09:11:05.220Z,91.90
2023-02-11T09:13:32.990Z,91.90
2023-02-11T09:16:00.519Z,92.00
2023-02-11T09:18:28.560Z,92.00
2023-02-11T09:21:06.015Z,92.00
2023-02-11T09:23:34.501Z,92.00
2023-02-11T09:26:09.384Z,92.00
2023-02-11T09:28:36.703Z,92.10
2023-02-11T09:31:07.096Z,92.10
2023-02-11T09:33:33.800Z,92.10
2023-02-11T09:36:01.867Z,92.10
2023-02-11T09:38:28.742Z,92.20
2023-02-11T09:40:55.606Z,92.20
2023-02-11T09:43:45.947Z,92.20
2023-02-11T09:46:17.088Z,92.20
2023-02-11T09:48:45.590Z,92.20
2023-02-11T09:51:32.248Z,92.20
2023-02-11T09:54:05.525Z,92.20
2023-02-11T09:56:32.461Z,92.20
2023-02-11T09:58:59.323Z,92.20
2023-02-11T10:01:41.851Z,92.30
2023-02-11T10:04:32.129Z,92.30
2023-02-11T10:07:22.422Z,92.30
2023-02-11T10:09:58.792Z,92.30
2023-02-11T10:12:47.496Z,92.30
2023-02-11T10:15:24.195Z,92.30
2023-02-11T10:18:02.068Z,92.30
2023-02-11T10:20:34.579Z,92.30
2023-02-11T10:23:03.025Z,92.40
2023-02-11T10:25:34.378Z,92.40
2023-02-11T10:28:01.915Z,92.40
2023-02-11T10:30:37.619Z,92.40
2023-02-11T10:33:06.699Z,92.40
2023-02-11T10:35:33.482Z,92.40
2023-02-11T10:38:01.052Z,92.40
2023-02-11T10:40:29.386Z,92.40
2023-02-11T10:42:59.193Z,92.40
2023-02-11T10:45:33.879Z,92.40
2023-02-11T10:48:01.820Z,92.40
2023-02-11T10:50:30.129Z,92.40
2023-02-11T10:53:11.559Z,92.40
2023-02-11T10:55:38.813Z,92.40
2023-02-11T10:58:05.728Z,92.40
2023-02-11T11:00:37.863Z,92.40
2023-02-11T11:03:07.364Z,92.40
2023-02-11T11:05:58.697Z,92.40
2023-02-11T11:08:43.435Z,92.40
2023-02-11T11:11:13.037Z,92.40
2023-02-11T11:14:00.912Z,92.40
2023-02-11T11:16:30.870Z,92.40
2023-02-11T11:19:07.806Z,92.50
2023-02-11T11:21:44.398Z,92.50
2023-02-11T11:24:29.621Z,92.50
2023-02-11T11:26:58.148Z,92.50
2023-02-11T11:30:03.333Z,92.50
2023-02-11T11:32:34.333Z,92.50
2023-02-11T11:35:03.843Z,92.50
2023-02-11T11:37:32.956Z,92.60
2023-02-11T11:40:15.277Z,92.60
2023-02-11T11:42:42.798Z,92.60
2023-02-11T11:45:10.113Z,92.60
2023-02-11T11:47:36.959Z,92.60
2023-02-11T11:50:07.383Z,92.60
2023-02-11T11:52:56.328Z,92.60
2023-02-11T11:55:27.135Z,92.60
2023-02-11T11:57:54.066Z,92.60
2023-02-11T12:00:24.088Z,92.60
2023-02-11T12:03:06.410Z,92.60
2023-02-11T12:05:43.008Z,92.60
2023-02-11T12:08:18.689Z,92.70
2023-02-11T12:10:58.380Z,92.70
2023-02-11T12:13:37.617Z,92.70
2023-02-11T12:16:10.661Z,92.70
2023-02-11T12:18:38.741Z,92.70
2023-02-11T12:21:05.495Z,92.70
2023-02-11T12:23:35.429Z,92.70
2023-02-11T12:26:11.258Z,92.80
2023-02-11T12:28:44.399Z,92.80
2023-02-11T12:31:19.007Z,92.80
2023-02-11T12:33:58.344Z,93.20
2023-02-11T12:36:40.546Z,92.80
2023-02-11T12:39:31.699Z,92.80
2023-02-11T12:42:32.825Z,92.90
2023-02-11T12:45:08.694Z,92.90
2023-02-11T12:47:54.712Z,92.90
2023-02-11T12:50:36.944Z,92.90
2023-02-11T12:53:22.743Z,92.90
2023-02-11T12:55:52.715Z,92.90
2023-02-11T12:58:25.379Z,92.90
2023-02-11T13:01:05.377Z,92.90
2023-02-11T13:04:02.094Z,93.00
2023-02-11T13:06:40.502Z,93.00
2023-02-11T13:09:12.941Z,93.00
2023-02-11T13:11:42.647Z,93.00
2023-02-11T13:14:15.212Z,93.00
2023-02-11T13:16:46.432Z,92.90
2023-02-11T13:19:13.727Z,92.90
2023-02-11T13:22:02.796Z,92.90
2023-02-11T13:24:34.266Z,92.90
2023-02-11T13:27:10.767Z,93.00
2023-02-11T13:30:03.798Z,93.00
2023-02-11T13:32:50.452Z,93.00
2023-02-11T13:35:30.958Z,93.00
2023-02-11T13:37:59.012Z,93.00
2023-02-11T13:40:27.078Z,93.00
2023-02-11T13:42:56.075Z,93.00
2023-02-11T13:45:28.364Z,93.00
2023-02-11T13:48:00.090Z,92.90
2023-02-11T13:50:27.532Z,93.00
2023-02-11T13:53:03.057Z,93.00
2023-02-11T13:55:30.813Z,92.90
2023-02-11T13:58:24.967Z,92.90
2023-02-11T14:00:55.320Z,92.90
2023-02-11T14:03:43.017Z,92.90
2023-02-11T14:06:29.046Z,92.90
2023-02-11T14:09:14.227Z,92.90
2023-02-11T14:11:44.489Z,92.90
2023-02-11T14:14:47.485Z,92.90
2023-02-11T14:17:19.190Z,92.90
2023-02-11T14:19:47.325Z,92.80
2023-02-11T14:22:24.174Z,92.90
2023-02-11T14:24:59.084Z,92.90
2023-02-11T14:27:35.001Z,92.80
2023-02-11T14:33:42.143Z,92.90
2023-02-11T14:36:20.648Z,92.80
2023-02-11T14:39:07.466Z,92.80
2023-02-11T14:41:42.465Z,92.80
2023-02-11T14:44:20.399Z,92.90
2023-02-11T14:46:48.075Z,92.80
2023-02-11T14:49:25.627Z,92.80
2023-02-11T14:51:54.008Z,92.80
2023-02-11T14:54:24.917Z,92.80
2023-02-11T14:57:08.684Z,92.80
2023-02-11T14:59:36.050Z,92.80
2023-02-11T15:02:03.150Z,92.80
2023-02-11T15:04:33.721Z,92.80
2023-02-11T15:07:04.764Z,92.90
2023-02-11T15:09:41.800Z,92.80
2023-02-11T15:12:18.916Z,92.80
2023-02-11T15:14:48.445Z,92.80
2023-02-11T15:17:17.850Z,92.70
2023-02-11T15:19:49.958Z,92.80
2023-02-11T15:22:23.154Z,92.70
2023-02-11T15:25:01.047Z,92.70
2023-02-11T15:27:28.545Z,92.70
2023-02-11T15:29:55.691Z,92.70
2023-02-11T15:32:23.881Z,92.70
2023-02-11T15:34:53.066Z,92.70
2023-02-11T15:37:24.703Z,92.70
2023-02-11T15:39:58.893Z,92.70
2023-02-11T15:42:33.998Z,92.70
2023-02-11T15:45:08.092Z,92.70
2023-02-11T15:47:35.955Z,92.70
2023-02-11T15:50:06.790Z,92.70
2023-02-11T15:52:37.196Z,92.70
2023-02-11T15:55:04.665Z,92.70
2023-02-11T15:57:31.902Z,92.70
2023-02-11T16:00:04.679Z,92.60
2023-02-11T16:02:45.209Z,92.60
2023-02-11T16:05:25.100Z,92.60
2023-02-11T16:07:52.160Z,92.60
2023-02-11T16:10:22.120Z,92.60
2023-02-11T16:13:00.873Z,92.90
2023-02-11T16:15:29.470Z,92.50
2023-02-11T16:17:59.794Z,92.50
2023-02-11T16:20:27.336Z,92.60
2023-02-11T16:22:54.658Z,92.50
2023-02-11T16:25:22.233Z,92.60
2023-02-11T16:27:53.403Z,92.60
2023-02-11T16:30:25.724Z,92.50
2023-02-11T16:32:55.735Z,92.50
2023-02-11T16:35:24.194Z,92.50
2023-02-11T16:37:51.369Z,92.50
2023-02-11T16:40:18.459Z,92.50
2023-02-11T16:42:45.671Z,92.50
2023-02-11T16:45:15.277Z,92.50
2023-02-11T16:47:42.828Z,92.50
2023-02-11T16:50:12.470Z,92.40
2023-02-11T16:52:40.240Z,92.40
2023-02-11T16:55:07.364Z,92.40
2023-02-11T16:57:34.247Z,92.40
2023-02-11T17:00:01.661Z,92.40
2023-02-11T17:02:30.547Z,92.40
2023-02-11T17:05:01.310Z,92.40
2023-02-11T17:07:28.713Z,92.40
2023-02-11T17:09:55.777Z,92.40
2023-02-11T17:12:25.238Z,92.40
2023-02-11T17:14:52.591Z,92.40
2023-02-11T17:17:19.604Z,92.80
2023-02-11T17:19:47.945Z,92.30
2023-02-11T17:22:14.789Z,92.30
2023-02-11T17:24:41.508Z,92.30
2023-02-11T17:27:09.719Z,92.30
2023-02-11T17:29:36.919Z,92.30
2023-02-11T17:32:04.135Z,92.30
2023-02-11T17:34:33.644Z,92.30
2023-02-11T17:37:03.181Z,92.30
2023-02-11T17:39:30.306Z,92.40
2023-02-11T17:41:57.278Z,92.30
2023-02-11T17:44:43.147Z,92.30
2023-02-11T17:47:10.052Z,92.30
2023-02-11T17:53:02.535Z,92.30
2023-02-11T17:55:35.996Z,92.30
2023-02-11T17:58:03.896Z,92.30
2023-02-11T18:00:34.107Z,92.20
2023-02-11T18:03:03.095Z,92.30
2023-02-11T18:05:36.869Z,92.20
2023-02-11T18:08:05.498Z,92.20
2023-02-11T18:10:33.641Z,92.20
2023-02-11T18:13:29.691Z,92.20
2023-02-11T18:16:09.159Z,92.20
2023-02-11T18:18:38.535Z,92.20
2023-02-11T18:21:08.550Z,92.20
2023-02-11T18:23:35.986Z,92.20
2023-02-11T18:26:06.553Z,92.20
2023-02-11T18:28:33.718Z,92.20
2023-02-11T18:31:01.163Z,92.20
2023-02-11T18:33:28.832Z,92.20
2023-02-11T18:35:55.948Z,92.20
2023-02-11T18:38:23.310Z,92.20
2023-02-11T18:40:53.453Z,92.20
2023-02-11T18:43:22.460Z,92.20
2023-02-11T18:45:51.917Z,92.20
2023-02-11T18:48:18.960Z,92.20
2023-02-11T18:50:46.030Z,92.10
2023-02-11T18:53:14.106Z,92.10
2023-02-11T18:55:42.034Z,92.10
2023-02-11T18:58:09.230Z,92.10
2023-02-11T19:00:37.570Z,92.10
2023-02-11T19:03:05.691Z,92.10
2023-02-11T19:05:49.300Z,92.10
2023-02-11T19:08:17.219Z,92.10
2023-02-11T19:11:06.415Z,92.10
2023-02-11T19:13:33.347Z,92.50
2023-02-11T19:16:00.407Z,92.10
2023-02-11T19:18:27.425Z,92.10
2023-02-11T19:20:54.189Z,92.10
2023-02-11T19:23:23.687Z,92.00
2023-02-11T19:25:50.977Z,92.10
2023-02-11T19:28:18.248Z,92.00
2023-02-11T19:30:45.392Z,92.00
2023-02-11T19:33:12.481Z,92.00
2023-02-11T19:35:39.534Z,92.00
2023-02-11T19:38:06.647Z,92.00
2023-02-11T19:40:33.791Z,92.00
2023-02-11T19:43:00.830Z,92.00
2023-02-11T19:45:28.462Z,92.00
2023-02-11T19:47:55.746Z,92.00
2023-02-11T19:50:23.032Z,92.00
2023-02-11T19:52:50.102Z,92.00
2023-02-11T19:55:17.021Z,92.00
2023-02-11T19:57:43.973Z,92.00
2023-02-11T20:00:13.641Z,92.00
2023-02-11T20:02:41.361Z,92.00
2023-02-11T20:05:08.691Z,92.00
2023-02-11T20:07:35.660Z,92.00
2023-02-11T20:10:02.752Z,91.90
2023-02-11T20:12:29.544Z,92.00
2023-02-11T20:14:56.407Z,91.90
2023-02-11T20:17:23.301Z,92.00
2023-02-11T20:19:50.164Z,92.00
2023-02-11T20:22:17.253Z,92.00
2023-02-11T20:24:44.170Z,92.00
2023-02-11T20:27:11.725Z,92.00
2023-02-11T20:29:39.144Z,92.00
2023-02-11T20:32:08.780Z,92.00
2023-02-11T20:34:35.785Z,92.00
2023-02-11T20:37:04.935Z,92.00
2023-02-11T20:39:31.844Z,92.00
2023-02-11T20:41:58.680Z,92.00
2023-02-11T20:44:25.554Z,92.00
2023-02-11T20:46:54.080Z,92.00
2023-02-11T20:49:24.383Z,92.00
2023-02-11T20:51:53.739Z,92.00
2023-02-11T20:54:21.333Z,92.00
2023-02-11T20:56:48.535Z,92.00
2023-02-11T20:59:16.661Z,92.00
2023-02-11T21:01:48.601Z,92.10
2023-02-11T21:04:20.005Z,92.00
2023-02-11T21:06:50.684Z,92.00
2023-02-11T21:09:19.973Z,92.00
2023-02-11T21:11:47.189Z,92.00
2023-02-11T21:14:13.955Z,92.00
2023-02-11T21:16:42.280Z,92.00
2023-02-11T21:19:09.462Z,92.00
2023-02-11T21:21:37.120Z,92.00
2023-02-11T21:24:04.423Z,92.00
2023-02-11T21:26:31.481Z,92.00
2023-02-11T21:28:58.285Z,92.00
2023-02-11T21:31:26.314Z,92.00
2023-02-11T21:33:55.097Z,92.00
2023-02-11T21:36:22.858Z,92.10
2023-02-11T21:38:50.096Z,92.00
2023-02-11T21:41:17.502Z,92.00
2023-02-11T21:43:45.197Z,92.00
2023-02-11T21:46:13.678Z,92.00
2023-02-11T21:48:41.024Z,92.00
2023-02-11T21:51:09.842Z,92.00
2023-02-11T21:53:36.918Z,92.00
2023-02-11T21:56:12.395Z,92.00
2023-02-11T21:58:39.594Z,92.20
2023-02-11T22:01:10.774Z,92.00
2023-02-11T22:03:37.754Z,92.00
2023-02-11T22:06:12.568Z,92.00
2023-02-11T22:08:40.207Z,92.10
2023-02-11T22:11:08.587Z,92.00
2023-02-11T22:13:36.314Z,92.00
2023-02-11T22:16:05.452Z,92.00
2023-02-11T22:18:32.560Z,92.00
2023-02-11T22:21:10.752Z,92.10
2023-02-11T22:23:38.261Z,92.10
2023-02-11T22:26:06.487Z,92.10
2023-02-11T22:28:33.447Z,92.10
2023-02-11T22:31:03.820Z,92.10
2023-02-11T22:33:31.234Z,92.10
2023-02-11T22:36:00.860Z,92.10
2023-02-11T22:38:31.727Z,92.10
2023-02-11T22:41:00.029Z,92.10
2023-02-11T22:43:27.277Z,92.10
2023-02-11T22:45:56.449Z,92.10
2023-02-11T22:48:23.475Z,92.40
2023-02-11T22:50:50.205Z,92.00
2023-02-11T22:53:17.038Z,92.10
2023-02-11T22:55:44.510Z,92.00
2023-02-11T22:58:11.614Z,92.00
2023-02-11T23:00:39.669Z,92.00
2023-02-11T23:03:07.303Z,92.10
2023-02-11T23:05:38.929Z,92.10
2023-02-11T23:08:06.043Z,92.10
2023-02-11T23:10:34.679Z,92.10
2023-02-11T23:13:01.505Z,92.10
2023-02-11T23:15:28.326Z,92.10
2023-02-11T23:17:55.202Z,92.10
2023-02-11T23:20:21.968Z,92.10
2023-02-11T23:22:48.874Z,92.10
2023-02-11T23:25:15.797Z,92.10
2023-02-11T23:27:42.455Z,92.10
2023-02-11T23:30:09.430Z,92.10
2023-02-11T23:32:40.758Z,92.10
2023-02-11T23:35:07.953Z,92.10
2023-02-11T23:37:34.858Z,92.10
2023-02-11T23:40:01.680Z,92.10
2023-02-11T23:42:29.212Z,92.10
2023-02-11T23:44:56.052Z,92.00
2023-02-11T23:47:22.722Z,92.00
2023-02-11T23:49:49.453Z,92.00
2023-02-11T23:52:16.692Z,92.00
2023-02-11T23:54:43.983Z,92.00
2023-02-11T23:57:10.857Z,92.10
2023-02-11T23:59:38.879Z,92.10
